sensor_id;sensor_type;location;lat;lon;timestamp;P1;durP1;ratioP1;P2;durP2;ratioP2
17886;SDS011;9069;52.044;7.472;2023-11-18T00:01:41;24.80;;;11.45;;
17886;SDS011;9069;52.044;7.472;2023-11-18T00:04:08;24.80;;;10.93;;
17886;SDS011;9069;52.044;7.472;2023-11-18T00:06:42;23.23;;;11.07;;
17886;SDS011;9069;52.044;7.472;2023-11-18T00:09:13;22.85;;;11.93;;
17886;SDS011;9069;52.044;7.472;2023-11-18T00:11:40;22.83;;;11.40;;
17886;SDS011;9069;52.044;7.472;2023-11-18T00:14:09;24.88;;;11.20;;
17886;SDS011;9069;52.044;7.472;2023-11-18T00:16:37;19.42;;;10.13;;
17886;SDS011;9069;52.044;7.472;2023-11-18T00:19:05;24.08;;;11.15;;
17886;SDS011;9069;52.044;7.472;2023-11-18T00:21:32;24.55;;;11.40;;
17886;SDS011;9069;52.044;7.472;2023-11-18T00:23:59;25.73;;;11.77;;
17886;SDS011;9069;52.044;7.472;2023-11-18T00:26:27;24.45;;;9.32;;
17886;SDS011;9069;52.044;7.472;2023-11-18T00:28:58;24.42;;;10.57;;
17886;SDS011;9069;52.044;7.472;2023-11-18T00:31:26;19.85;;;10.02;;
17886;SDS011;9069;52.044;7.472;2023-11-18T00:33:54;19.50;;;10.00;;
17886;SDS011;9069;52.044;7.472;2023-11-18T00:36:20;24.50;;;10.95;;
17886;SDS011;9069;52.044;7.472;2023-11-18T00:38:47;21.13;;;10.57;;
17886;SDS011;9069;52.044;7.472;2023-11-18T00:41:15;18.52;;;10.45;;
17886;SDS011;9069;52.044;7.472;2023-11-18T00:43:43;21.70;;;10.70;;
17886;SDS011;9069;52.044;7.472;2023-11-18T00:46:10;21.17;;;10.82;;
17886;SDS011;9069;52.044;7.472;2023-11-18T00:48:37;21.23;;;10.35;;
17886;SDS011;9069;52.044;7.472;2023-11-18T00:51:08;20.58;;;9.80;;
17886;SDS011;9069;52.044;7.472;2023-11-18T00:53:34;23.42;;;11.43;;
17886;SDS011;9069;52.044;7.472;2023-11-18T00:56:02;21.98;;;10.52;;
17886;SDS011;9069;52.044;7.472;2023-11-18T00:58:34;17.83;;;9.85;;
17886;SDS011;9069;52.044;7.472;2023-11-18T01:01:06;17.00;;;9.32;;
17886;SDS011;9069;52.044;7.472;2023-11-18T01:03:33;24.02;;;10.25;;
17886;SDS011;9069;52.044;7.472;2023-11-18T01:06:05;18.25;;;9.55;;
17886;SDS011;9069;52.044;7.472;2023-11-18T01:08:32;24.75;;;10.52;;
17886;SDS011;9069;52.044;7.472;2023-11-18T01:10:59;19.42;;;9.73;;
17886;SDS011;9069;52.044;7.472;2023-11-18T01:13:30;22.67;;;10.57;;
17886;SDS011;9069;52.044;7.472;2023-11-18T01:16:04;20.38;;;10.25;;
17886;SDS011;9069;52.044;7.472;2023-11-18T01:18:31;18.42;;;9.35;;
17886;SDS011;9069;52.044;7.472;2023-11-18T01:21:04;18.73;;;9.18;;
17886;SDS011;9069;52.044;7.472;2023-11-18T01:23:32;16.20;;;8.75;;
17886;SDS011;9069;52.044;7.472;2023-11-18T01:26:04;18.15;;;8.50;;
17886;SDS011;9069;52.044;7.472;2023-11-18T01:28:33;17.95;;;9.07;;
17886;SDS011;9069;52.044;7.472;2023-11-18T01:31:05;17.85;;;8.77;;
17886;SDS011;9069;52.044;7.472;2023-11-18T01:33:39;21.45;;;9.30;;
17886;SDS011;9069;52.044;7.472;2023-11-18T01:36:07;17.13;;;8.57;;
17886;SDS011;9069;52.044;7.472;2023-11-18T01:38:35;14.90;;;8.45;;
17886;SDS011;9069;52.044;7.472;2023-11-18T01:41:04;19.02;;;8.10;;
17886;SDS011;9069;52.044;7.472;2023-11-18T01:43:32;16.33;;;8.10;;
17886;SDS011;9069;52.044;7.472;2023-11-18T01:45:59;16.05;;;8.73;;
17886;SDS011;9069;52.044;7.472;2023-11-18T01:48:29;19.27;;;8.60;;
17886;SDS011;9069;52.044;7.472;2023-11-18T01:50:59;17.67;;;8.13;;
17886;SDS011;9069;52.044;7.472;2023-11-18T01:53:32;25.15;;;9.32;;
17886;SDS011;9069;52.044;7.472;2023-11-18T01:56:02;28.60;;;9.07;;
17886;SDS011;9069;52.044;7.472;2023-11-18T01:58:34;25.13;;;8.20;;
17886;SDS011;9069;52.044;7.472;2023-11-18T02:01:03;28.08;;;9.10;;
17886;SDS011;9069;52.044;7.472;2023-11-18T02:03:34;19.40;;;8.27;;
17886;SDS011;9069;52.044;7.472;2023-11-18T02:06:02;13.38;;;7.85;;
17886;SDS011;9069;52.044;7.472;2023-11-18T02:08:32;27.65;;;8.48;;
17886;SDS011;9069;52.044;7.472;2023-11-18T02:11:27;21.08;;;9.43;;
17886;SDS011;9069;52.044;7.472;2023-11-18T02:14:00;19.48;;;8.52;;
17886;SDS011;9069;52.044;7.472;2023-11-18T02:16:29;31.50;;;8.35;;
17886;SDS011;9069;52.044;7.472;2023-11-18T02:18:58;24.00;;;8.82;;
17886;SDS011;9069;52.044;7.472;2023-11-18T02:21:27;29.70;;;9.13;;
17886;SDS011;9069;52.044;7.472;2023-11-18T02:23:57;13.75;;;7.03;;
17886;SDS011;9069;52.044;7.472;2023-11-18T02:26:24;21.27;;;8.02;;
17886;SDS011;9069;52.044;7.472;2023-11-18T02:28:52;17.67;;;8.75;;
17886;SDS011;9069;52.044;7.472;2023-11-18T02:31:26;15.35;;;8.40;;
17886;SDS011;9069;52.044;7.472;2023-11-18T02:34:02;15.93;;;7.72;;
17886;SDS011;9069;52.044;7.472;2023-11-18T02:36:36;21.55;;;8.95;;
17886;SDS011;9069;52.044;7.472;2023-11-18T02:39:22;27.20;;;8.88;;
17886;SDS011;9069;52.044;7.472;2023-11-18T02:41:55;22.15;;;9.63;;
17886;SDS011;9069;52.044;7.472;2023-11-18T02:44:24;22.90;;;9.32;;
17886;SDS011;9069;52.044;7.472;2023-11-18T02:46:51;24.88;;;7.75;;
17886;SDS011;9069;52.044;7.472;2023-11-18T02:49:18;24.40;;;8.70;;
17886;SDS011;9069;52.044;7.472;2023-11-18T02:51:45;19.08;;;7.85;;
17886;SDS011;9069;52.044;7.472;2023-11-18T02:54:14;18.35;;;8.98;;
17886;SDS011;9069;52.044;7.472;2023-11-18T02:56:42;16.38;;;8.70;;
17886;SDS011;9069;52.044;7.472;2023-11-18T02:59:09;18.55;;;9.40;;
17886;SDS011;9069;52.044;7.472;2023-11-18T03:01:36;23.38;;;7.70;;
17886;SDS011;9069;52.044;7.472;2023-11-18T03:04:05;16.15;;;8.70;;
17886;SDS011;9069;52.044;7.472;2023-11-18T03:06:32;19.33;;;9.05;;
17886;SDS011;9069;52.044;7.472;2023-11-18T03:09:00;21.38;;;9.80;;
17886;SDS011;9069;52.044;7.472;2023-11-18T03:11:29;20.30;;;10.07;;
17886;SDS011;9069;52.044;7.472;2023-11-18T03:13:57;17.48;;;8.93;;
17886;SDS011;9069;52.044;7.472;2023-11-18T03:16:24;17.55;;;9.35;;
17886;SDS011;9069;52.044;7.472;2023-11-18T03:18:51;20.63;;;9.13;;
17886;SDS011;9069;52.044;7.472;2023-11-18T03:21:18;20.88;;;9.38;;
17886;SDS011;9069;52.044;7.472;2023-11-18T03:23:48;18.58;;;9.82;;
17886;SDS011;9069;52.044;7.472;2023-11-18T03:26:14;20.70;;;9.98;;
17886;SDS011;9069;52.044;7.472;2023-11-18T03:28:41;20.63;;;10.07;;
17886;SDS011;9069;52.044;7.472;2023-11-18T03:31:08;17.60;;;8.80;;
17886;SDS011;9069;52.044;7.472;2023-11-18T03:33:35;19.90;;;9.35;;
17886;SDS011;9069;52.044;7.472;2023-11-18T03:36:05;22.40;;;10.43;;
17886;SDS011;9069;52.044;7.472;2023-11-18T03:38:32;21.58;;;10.18;;
17886;SDS011;9069;52.044;7.472;2023-11-18T03:40:59;28.52;;;11.43;;
17886;SDS011;9069;52.044;7.472;2023-11-18T03:43:29;27.40;;;11.60;;
17886;SDS011;9069;52.044;7.472;2023-11-18T03:45:56;20.92;;;10.65;;
17886;SDS011;9069;52.044;7.472;2023-11-18T03:48:23;25.50;;;11.68;;
17886;SDS011;9069;52.044;7.472;2023-11-18T03:50:50;26.25;;;11.20;;
17886;SDS011;9069;52.044;7.472;2023-11-18T03:53:17;27.55;;;12.60;;
17886;SDS011;9069;52.044;7.472;2023-11-18T03:55:44;29.92;;;12.45;;
17886;SDS011;9069;52.044;7.472;2023-11-18T03:58:11;24.92;;;11.57;;
17886;SDS011;9069;52.044;7.472;2023-11-18T04:00:38;28.98;;;12.65;;
17886;SDS011;9069;52.044;7.472;2023-11-18T04:03:04;22.27;;;10.30;;
17886;SDS011;9069;52.044;7.472;2023-11-18T04:05:33;22.08;;;10.70;;
17886;SDS011;9069;52.044;7.472;2023-11-18T04:08:01;27.92;;;11.32;;
17886;SDS011;9069;52.044;7.472;2023-11-18T04:10:28;21.50;;;10.63;;
17886;SDS011;9069;52.044;7.472;2023-11-18T04:12:55;22.23;;;10.60;;
17886;SDS011;9069;52.044;7.472;2023-11-18T04:15:23;23.88;;;10.85;;
17886;SDS011;9069;52.044;7.472;2023-11-18T04:17:50;24.70;;;10.45;;
17886;SDS011;9069;52.044;7.472;2023-11-18T04:20:18;26.65;;;10.43;;
17886;SDS011;9069;52.044;7.472;2023-11-18T04:22:45;23.52;;;10.15;;
17886;SDS011;9069;52.044;7.472;2023-11-18T04:25:12;20.80;;;10.23;;
17886;SDS011;9069;52.044;7.472;2023-11-18T04:27:39;23.40;;;11.68;;
17886;SDS011;9069;52.044;7.472;2023-11-18T04:30:10;22.95;;;10.30;;
17886;SDS011;9069;52.044;7.472;2023-11-18T04:32:39;21.73;;;10.50;;
17886;SDS011;9069;52.044;7.472;2023-11-18T04:35:09;19.33;;;10.07;;
17886;SDS011;9069;52.044;7.472;2023-11-18T04:37:38;22.92;;;9.65;;
17886;SDS011;9069;52.044;7.472;2023-11-18T04:40:09;21.10;;;10.20;;
17886;SDS011;9069;52.044;7.472;2023-11-18T04:42:39;19.83;;;10.82;;
17886;SDS011;9069;52.044;7.472;2023-11-18T04:45:07;21.52;;;9.82;;
17886;SDS011;9069;52.044;7.472;2023-11-18T04:47:36;21.38;;;9.35;;
17886;SDS011;9069;52.044;7.472;2023-11-18T04:50:04;20.92;;;9.68;;
17886;SDS011;9069;52.044;7.472;2023-11-18T04:52:31;19.27;;;10.18;;
17886;SDS011;9069;52.044;7.472;2023-11-18T04:55:01;20.20;;;10.25;;
17886;SDS011;9069;52.044;7.472;2023-11-18T04:57:31;16.13;;;8.65;;
17886;SDS011;9069;52.044;7.472;2023-11-18T04:59:58;20.52;;;10.23;;
17886;SDS011;9069;52.044;7.472;2023-11-18T05:02:27;18.98;;;9.68;;
17886;SDS011;9069;52.044;7.472;2023-11-18T05:04:54;23.13;;;11.05;;
17886;SDS011;9069;52.044;7.472;2023-11-18T05:07:20;22.23;;;10.43;;
17886;SDS011;9069;52.044;7.472;2023-11-18T05:09:48;23.90;;;11.10;;
17886;SDS011;9069;52.044;7.472;2023-11-18T05:12:14;22.35;;;9.98;;
17886;SDS011;9069;52.044;7.472;2023-11-18T05:14:41;21.17;;;10.40;;
17886;SDS011;9069;52.044;7.472;2023-11-18T05:17:08;19.65;;;10.15;;
17886;SDS011;9069;52.044;7.472;2023-11-18T05:19:35;19.73;;;9.65;;
17886;SDS011;9069;52.044;7.472;2023-11-18T05:22:02;24.88;;;10.15;;
17886;SDS011;9069;52.044;7.472;2023-11-18T05:24:30;22.33;;;9.48;;
17886;SDS011;9069;52.044;7.472;2023-11-18T05:26:57;23.13;;;9.95;;
17886;SDS011;9069;52.044;7.472;2023-11-18T05:29:28;22.27;;;9.52;;
17886;SDS011;9069;52.044;7.472;2023-11-18T05:31:55;17.90;;;9.98;;
17886;SDS011;9069;52.044;7.472;2023-11-18T05:34:22;23.33;;;10.35;;
17886;SDS011;9069;52.044;7.472;2023-11-18T05:36:48;23.38;;;10.45;;
17886;SDS011;9069;52.044;7.472;2023-11-18T05:39:20;17.70;;;9.75;;
17886;SDS011;9069;52.044;7.472;2023-11-18T05:41:51;23.83;;;9.82;;
17886;SDS011;9069;52.044;7.472;2023-11-18T05:44:19;22.40;;;10.82;;
17886;SDS011;9069;52.044;7.472;2023-11-18T05:46:47;16.88;;;8.88;;
17886;SDS011;9069;52.044;7.472;2023-11-18T05:49:17;21.25;;;9.13;;
17886;SDS011;9069;52.044;7.472;2023-11-18T05:51:48;22.10;;;9.77;;
17886;SDS011;9069;52.044;7.472;2023-11-18T05:54:16;18.48;;;9.38;;
17886;SDS011;9069;52.044;7.472;2023-11-18T05:56:42;16.65;;;8.73;;
17886;SDS011;9069;52.044;7.472;2023-11-18T05:59:10;21.40;;;9.05;;
17886;SDS011;9069;52.044;7.472;2023-11-18T06:01:36;20.85;;;8.63;;
17886;SDS011;9069;52.044;7.472;2023-11-18T06:04:04;19.95;;;8.88;;
17886;SDS011;9069;52.044;7.472;2023-11-18T06:06:34;21.00;;;9.55;;
17886;SDS011;9069;52.044;7.472;2023-11-18T06:09:03;17.70;;;8.60;;
17886;SDS011;9069;52.044;7.472;2023-11-18T06:11:36;19.50;;;9.30;;
17886;SDS011;9069;52.044;7.472;2023-11-18T06:14:07;20.77;;;8.88;;
17886;SDS011;9069;52.044;7.472;2023-11-18T06:16:35;17.80;;;8.07;;
17886;SDS011;9069;52.044;7.472;2023-11-18T06:19:06;13.90;;;7.65;;
17886;SDS011;9069;52.044;7.472;2023-11-18T06:21:33;15.07;;;8.10;;
17886;SDS011;9069;52.044;7.472;2023-11-18T06:24:00;18.05;;;9.02;;
17886;SDS011;9069;52.044;7.472;2023-11-18T06:26:28;14.52;;;8.48;;
17886;SDS011;9069;52.044;7.472;2023-11-18T06:28:55;15.93;;;8.18;;
17886;SDS011;9069;52.044;7.472;2023-11-18T06:31:23;15.55;;;7.90;;
17886;SDS011;9069;52.044;7.472;2023-11-18T06:33:50;15.30;;;7.78;;
17886;SDS011;9069;52.044;7.472;2023-11-18T06:36:18;17.58;;;8.00;;
17886;SDS011;9069;52.044;7.472;2023-11-18T06:38:49;14.98;;;7.70;;
17886;SDS011;9069;52.044;7.472;2023-11-18T06:41:18;17.63;;;8.82;;
17886;SDS011;9069;52.044;7.472;2023-11-18T06:43:50;17.85;;;8.50;;
17886;SDS011;9069;52.044;7.472;2023-11-18T06:46:18;18.50;;;8.75;;
17886;SDS011;9069;52.044;7.472;2023-11-18T06:48:49;18.33;;;9.15;;
17886;SDS011;9069;52.044;7.472;2023-11-18T06:51:16;17.75;;;9.55;;
17886;SDS011;9069;52.044;7.472;2023-11-18T06:53:43;18.27;;;10.07;;
17886;SDS011;9069;52.044;7.472;2023-11-18T06:56:10;13.00;;;7.80;;
17886;SDS011;9069;52.044;7.472;2023-11-18T06:58:38;17.25;;;8.30;;
17886;SDS011;9069;52.044;7.472;2023-11-18T07:01:07;16.17;;;8.02;;
17886;SDS011;9069;52.044;7.472;2023-11-18T07:03:34;18.77;;;8.63;;
17886;SDS011;9069;52.044;7.472;2023-11-18T07:06:03;20.65;;;8.50;;
17886;SDS011;9069;52.044;7.472;2023-11-18T07:08:55;18.88;;;8.02;;
17886;SDS011;9069;52.044;7.472;2023-11-18T07:11:32;20.85;;;8.57;;
17886;SDS011;9069;52.044;7.472;2023-11-18T07:13:59;17.23;;;8.23;;
17886;SDS011;9069;52.044;7.472;2023-11-18T07:16:28;13.68;;;7.75;;
17886;SDS011;9069;52.044;7.472;2023-11-18T07:18:55;18.23;;;7.68;;
17886;SDS011;9069;52.044;7.472;2023-11-18T07:21:21;18.83;;;8.50;;
17886;SDS011;9069;52.044;7.472;2023-11-18T07:23:48;19.73;;;8.85;;
17886;SDS011;9069;52.044;7.472;2023-11-18T07:26:15;17.48;;;8.52;;
17886;SDS011;9069;52.044;7.472;2023-11-18T07:28:42;14.55;;;7.93;;
17886;SDS011;9069;52.044;7.472;2023-11-18T07:31:10;20.55;;;8.90;;
17886;SDS011;9069;52.044;7.472;2023-11-18T07:33:38;14.43;;;8.00;;
17886;SDS011;9069;52.044;7.472;2023-11-18T07:36:09;18.75;;;8.02;;
17886;SDS011;9069;52.044;7.472;2023-11-18T07:38:38;15.30;;;7.47;;
17886;SDS011;9069;52.044;7.472;2023-11-18T07:41:06;16.23;;;8.95;;
17886;SDS011;9069;52.044;7.472;2023-11-18T07:43:35;16.48;;;7.50;;
17886;SDS011;9069;52.044;7.472;2023-11-18T07:46:06;14.45;;;7.30;;
17886;SDS011;9069;52.044;7.472;2023-11-18T07:48:34;14.02;;;7.75;;
17886;SDS011;9069;52.044;7.472;2023-11-18T07:51:01;16.80;;;9.10;;
17886;SDS011;9069;52.044;7.472;2023-11-18T07:53:30;15.30;;;8.02;;
17886;SDS011;9069;52.044;7.472;2023-11-18T07:55:58;14.75;;;8.65;;
17886;SDS011;9069;52.044;7.472;2023-11-18T07:58:24;13.55;;;7.72;;
17886;SDS011;9069;52.044;7.472;2023-11-18T08:00:53;13.07;;;7.13;;
17886;SDS011;9069;52.044;7.472;2023-11-18T08:03:21;14.63;;;7.68;;
17886;SDS011;9069;52.044;7.472;2023-11-18T08:05:48;18.00;;;8.40;;
17886;SDS011;9069;52.044;7.472;2023-11-18T08:08:15;13.15;;;6.85;;
17886;SDS011;9069;52.044;7.472;2023-11-18T08:10:45;12.93;;;7.03;;
17886;SDS011;9069;52.044;7.472;2023-11-18T08:13:14;13.73;;;7.78;;
17886;SDS011;9069;52.044;7.472;2023-11-18T08:15:43;13.30;;;7.07;;
17886;SDS011;9069;52.044;7.472;2023-11-18T08:18:13;18.75;;;7.38;;
17886;SDS011;9069;52.044;7.472;2023-11-18T08:20:40;10.65;;;6.60;;
17886;SDS011;9069;52.044;7.472;2023-11-18T08:23:07;14.35;;;6.85;;
17886;SDS011;9069;52.044;7.472;2023-11-18T08:25:34;16.13;;;7.90;;
17886;SDS011;9069;52.044;7.472;2023-11-18T08:28:06;14.32;;;8.23;;
17886;SDS011;9069;52.044;7.472;2023-11-18T08:30:34;13.98;;;8.32;;
17886;SDS011;9069;52.044;7.472;2023-11-18T08:33:04;12.63;;;6.88;;
17886;SDS011;9069;52.044;7.472;2023-11-18T08:35:35;18.42;;;7.95;;
17886;SDS011;9069;52.044;7.472;2023-11-18T08:38:02;15.15;;;7.78;;
17886;SDS011;9069;52.044;7.472;2023-11-18T08:40:31;12.98;;;6.55;;
17886;SDS011;9069;52.044;7.472;2023-11-18T08:42:57;14.07;;;6.75;;
17886;SDS011;9069;52.044;7.472;2023-11-18T08:45:25;12.32;;;7.60;;
17886;SDS011;9069;52.044;7.472;2023-11-18T08:47:59;16.60;;;7.50;;
17886;SDS011;9069;52.044;7.472;2023-11-18T08:50:28;14.38;;;7.32;;
17886;SDS011;9069;52.044;7.472;2023-11-18T08:52:55;13.95;;;7.82;;
17886;SDS011;9069;52.044;7.472;2023-11-18T08:55:26;18.35;;;7.63;;
17886;SDS011;9069;52.044;7.472;2023-11-18T08:58:10;13.23;;;7.97;;
17886;SDS011;9069;52.044;7.472;2023-11-18T09:00:54;14.70;;;7.43;;
17886;SDS011;9069;52.044;7.472;2023-11-18T09:03:31;16.90;;;8.43;;
17886;SDS011;9069;52.044;7.472;2023-11-18T09:06:05;13.60;;;7.30;;
17886;SDS011;9069;52.044;7.472;2023-11-18T09:08:44;15.38;;;7.05;;
17886;SDS011;9069;52.044;7.472;2023-11-18T09:11:13;13.40;;;8.02;;
17886;SDS011;9069;52.044;7.472;2023-11-18T09:13:42;16.38;;;8.38;;
17886;SDS011;9069;52.044;7.472;2023-11-18T09:16:11;16.83;;;8.30;;
17886;SDS011;9069;52.044;7.472;2023-11-18T09:18:38;15.57;;;7.95;;
17886;SDS011;9069;52.044;7.472;2023-11-18T09:21:09;15.15;;;7.97;;
17886;SDS011;9069;52.044;7.472;2023-11-18T09:23:42;14.90;;;8.25;;
17886;SDS011;9069;52.044;7.472;2023-11-18T09:26:09;15.18;;;7.95;;
17886;SDS011;9069;52.044;7.472;2023-11-18T09:28:37;11.40;;;6.93;;
17886;SDS011;9069;52.044;7.472;2023-11-18T09:31:05;16.83;;;9.00;;
17886;SDS011;9069;52.044;7.472;2023-11-18T09:33:32;17.25;;;9.10;;
17886;SDS011;9069;52.044;7.472;2023-11-18T09:36:01;17.13;;;8.80;;
17886;SDS011;9069;52.044;7.472;2023-11-18T09:38:36;20.92;;;10.30;;
17886;SDS011;9069;52.044;7.472;2023-11-18T09:41:07;14.43;;;8.93;;
17886;SDS011;9069;52.044;7.472;2023-11-18T09:43:39;15.48;;;8.27;;
17886;SDS011;9069;52.044;7.472;2023-11-18T09:46:15;18.08;;;8.75;;
17886;SDS011;9069;52.044;7.472;2023-11-18T09:48:49;15.73;;;8.48;;
17886;SDS011;9069;52.044;7.472;2023-11-18T09:51:20;13.38;;;7.63;;
17886;SDS011;9069;52.044;7.472;2023-11-18T09:53:52;14.02;;;8.15;;
17886;SDS011;9069;52.044;7.472;2023-11-18T09:56:41;16.17;;;8.27;;
17886;SDS011;9069;52.044;7.472;2023-11-18T10:02:26;17.88;;;9.38;;
17886;SDS011;9069;52.044;7.472;2023-11-18T10:04:56;17.17;;;8.57;;
17886;SDS011;9069;52.044;7.472;2023-11-18T10:07:24;14.45;;;8.80;;
17886;SDS011;9069;52.044;7.472;2023-11-18T10:09:56;15.98;;;9.07;;
17886;SDS011;9069;52.044;7.472;2023-11-18T10:12:24;14.68;;;8.18;;
17886;SDS011;9069;52.044;7.472;2023-11-18T10:14:53;13.95;;;8.13;;
17886;SDS011;9069;52.044;7.472;2023-11-18T10:17:20;13.45;;;7.70;;
17886;SDS011;9069;52.044;7.472;2023-11-18T10:19:52;15.30;;;8.63;;
17886;SDS011;9069;52.044;7.472;2023-11-18T10:22:23;15.85;;;8.55;;
17886;SDS011;9069;52.044;7.472;2023-11-18T10:24:57;14.20;;;8.20;;
17886;SDS011;9069;52.044;7.472;2023-11-18T10:27:24;16.02;;;8.63;;
17886;SDS011;9069;52.044;7.472;2023-11-18T10:30:11;16.55;;;8.13;;
17886;SDS011;9069;52.044;7.472;2023-11-18T10:32:58;14.38;;;8.70;;
17886;SDS011;9069;52.044;7.472;2023-11-18T10:35:32;11.77;;;7.05;;
17886;SDS011;9069;52.044;7.472;2023-11-18T10:38:02;14.65;;;8.40;;
17886;SDS011;9069;52.044;7.472;2023-11-18T10:40:34;14.55;;;7.90;;
17886;SDS011;9069;52.044;7.472;2023-11-18T10:43:03;12.05;;;7.75;;
17886;SDS011;9069;52.044;7.472;2023-11-18T10:45:36;17.25;;;8.63;;
17886;SDS011;9069;52.044;7.472;2023-11-18T10:48:11;17.17;;;9.15;;
17886;SDS011;9069;52.044;7.472;2023-11-18T10:50:44;17.20;;;9.02;;
17886;SDS011;9069;52.044;7.472;2023-11-18T10:53:13;16.88;;;8.32;;
17886;SDS011;9069;52.044;7.472;2023-11-18T10:55:41;15.60;;;8.02;;
17886;SDS011;9069;52.044;7.472;2023-11-18T10:58:10;14.68;;;8.05;;
17886;SDS011;9069;52.044;7.472;2023-11-18T11:00:47;20.15;;;7.90;;
17886;SDS011;9069;52.044;7.472;2023-11-18T11:03:15;16.25;;;7.28;;
17886;SDS011;9069;52.044;7.472;2023-11-18T11:05:42;16.55;;;9.68;;
17886;SDS011;9069;52.044;7.472;2023-11-18T11:08:13;14.38;;;7.75;;
17886;SDS011;9069;52.044;7.472;2023-11-18T11:10:54;12.35;;;6.78;;
17886;SDS011;9069;52.044;7.472;2023-11-18T11:13:28;13.90;;;7.78;;
17886;SDS011;9069;52.044;7.472;2023-11-18T11:15:56;14.07;;;8.13;;
17886;SDS011;9069;52.044;7.472;2023-11-18T11:18:24;12.30;;;7.70;;
17886;SDS011;9069;52.044;7.472;2023-11-18T11:26:39;11.35;;;6.13;;
17886;SDS011;9069;52.044;7.472;2023-11-18T11:29:30;13.95;;;7.68;;
17886;SDS011;9069;52.044;7.472;2023-11-18T11:34:29;10.77;;;6.43;;
17886;SDS011;9069;52.044;7.472;2023-11-18T11:36:58;14.43;;;8.23;;
17886;SDS011;9069;52.044;7.472;2023-11-18T11:39:27;12.77;;;7.28;;
17886;SDS011;9069;52.044;7.472;2023-11-18T11:41:56;11.30;;;6.85;;
17886;SDS011;9069;52.044;7.472;2023-11-18T11:44:25;11.35;;;6.90;;
17886;SDS011;9069;52.044;7.472;2023-11-18T11:46:57;11.35;;;7.00;;
17886;SDS011;9069;52.044;7.472;2023-11-18T11:49:29;12.30;;;6.47;;
17886;SDS011;9069;52.044;7.472;2023-11-18T11:52:04;11.68;;;7.15;;
17886;SDS011;9069;52.044;7.472;2023-11-18T11:57:39;12.82;;;7.05;;
17886;SDS011;9069;52.044;7.472;2023-11-18T12:00:09;14.50;;;7.07;;
17886;SDS011;9069;52.044;7.472;2023-11-18T12:02:49;13.90;;;7.38;;
17886;SDS011;9069;52.044;7.472;2023-11-18T12:05:24;15.63;;;8.27;;
17886;SDS011;9069;52.044;7.472;2023-11-18T12:07:53;10.98;;;6.95;;
17886;SDS011;9069;52.044;7.472;2023-11-18T12:10:26;19.67;;;7.43;;
17886;SDS011;9069;52.044;7.472;2023-11-18T12:13:08;10.65;;;6.22;;
17886;SDS011;9069;52.044;7.472;2023-11-18T12:18:20;14.05;;;7.20;;
17886;SDS011;9069;52.044;7.472;2023-11-18T12:20:48;12.38;;;6.53;;
17886;SDS011;9069;52.044;7.472;2023-11-18T12:23:20;11.88;;;6.40;;
17886;SDS011;9069;52.044;7.472;2023-11-18T12:25:51;12.88;;;6.88;;
17886;SDS011;9069;52.044;7.472;2023-11-18T12:28:29;12.85;;;7.35;;
17886;SDS011;9069;52.044;7.472;2023-11-18T12:31:03;11.52;;;6.65;;
17886;SDS011;9069;52.044;7.472;2023-11-18T12:42:01;13.02;;;7.10;;
17886;SDS011;9069;52.044;7.472;2023-11-18T12:47:42;12.98;;;7.18;;
17886;SDS011;9069;52.044;7.472;2023-11-18T12:50:11;12.40;;;6.55;;
17886;SDS011;9069;52.044;7.472;2023-11-18T12:52:44;12.88;;;6.25;;
17886;SDS011;9069;52.044;7.472;2023-11-18T12:55:12;11.98;;;6.35;;
17886;SDS011;9069;52.044;7.472;2023-11-18T12:57:48;9.95;;;5.95;;
17886;SDS011;9069;52.044;7.472;2023-11-18T13:00:17;13.00;;;6.65;;
17886;SDS011;9069;52.044;7.472;2023-11-18T13:02:53;10.10;;;5.93;;
17886;SDS011;9069;52.044;7.472;2023-11-18T13:05:21;10.90;;;5.80;;
17886;SDS011;9069;52.044;7.472;2023-11-18T13:07:48;13.77;;;6.75;;
17886;SDS011;9069;52.044;7.472;2023-11-18T13:10:15;11.07;;;6.30;;
17886;SDS011;9069;52.044;7.472;2023-11-18T13:12:43;11.55;;;6.13;;
17886;SDS011;9069;52.044;7.472;2023-11-18T13:15:11;15.07;;;6.57;;
17886;SDS011;9069;52.044;7.472;2023-11-18T13:17:38;9.77;;;5.70;;
17886;SDS011;9069;52.044;7.472;2023-11-18T13:20:13;10.63;;;5.60;;
17886;SDS011;9069;52.044;7.472;2023-11-18T13:22:43;10.93;;;5.90;;
17886;SDS011;9069;52.044;7.472;2023-11-18T13:25:14;13.82;;;5.97;;
17886;SDS011;9069;52.044;7.472;2023-11-18T13:27:43;8.50;;;4.70;;
17886;SDS011;9069;52.044;7.472;2023-11-18T13:30:10;11.15;;;5.65;;
17886;SDS011;9069;52.044;7.472;2023-11-18T13:32:40;11.07;;;6.25;;
17886;SDS011;9069;52.044;7.472;2023-11-18T13:35:08;11.35;;;6.03;;
17886;SDS011;9069;52.044;7.472;2023-11-18T13:37:37;11.05;;;5.88;;
17886;SDS011;9069;52.044;7.472;2023-11-18T13:40:04;11.82;;;5.80;;
17886;SDS011;9069;52.044;7.472;2023-11-18T13:42:32;11.05;;;6.03;;
17886;SDS011;9069;52.044;7.472;2023-11-18T13:45:05;12.68;;;5.93;;
17886;SDS011;9069;52.044;7.472;2023-11-18T13:47:38;8.82;;;4.82;;
17886;SDS011;9069;52.044;7.472;2023-11-18T13:50:08;10.85;;;5.53;;
17886;SDS011;9069;52.044;7.472;2023-11-18T13:52:36;10.88;;;4.95;;
17886;SDS011;9069;52.044;7.472;2023-11-18T13:55:07;13.90;;;6.10;;
17886;SDS011;9069;52.044;7.472;2023-11-18T13:57:35;11.20;;;5.25;;
17886;SDS011;9069;52.044;7.472;2023-11-18T14:00:03;9.40;;;5.72;;
17886;SDS011;9069;52.044;7.472;2023-11-18T14:02:33;10.63;;;5.40;;
17886;SDS011;9069;52.044;7.472;2023-11-18T14:05:02;10.38;;;5.60;;
17886;SDS011;9069;52.044;7.472;2023-11-18T14:07:36;11.15;;;5.63;;
17886;SDS011;9069;52.044;7.472;2023-11-18T14:10:04;7.57;;;5.00;;
17886;SDS011;9069;52.044;7.472;2023-11-18T14:12:34;14.60;;;5.15;;
17886;SDS011;9069;52.044;7.472;2023-11-18T14:15:01;8.95;;;5.28;;
17886;SDS011;9069;52.044;7.472;2023-11-18T14:17:29;7.10;;;4.90;;
17886;SDS011;9069;52.044;7.472;2023-11-18T14:19:56;10.63;;;4.78;;
17886;SDS011;9069;52.044;7.472;2023-11-18T14:22:24;9.93;;;5.40;;
17886;SDS011;9069;52.044;7.472;2023-11-18T14:24:51;8.93;;;4.35;;
17886;SDS011;9069;52.044;7.472;2023-11-18T14:27:18;8.20;;;4.53;;
17886;SDS011;9069;52.044;7.472;2023-11-18T14:29:44;8.23;;;4.00;;
17886;SDS011;9069;52.044;7.472;2023-11-18T14:32:12;7.78;;;4.80;;
17886;SDS011;9069;52.044;7.472;2023-11-18T14:34:40;6.97;;;4.53;;
17886;SDS011;9069;52.044;7.472;2023-11-18T14:37:08;8.02;;;4.25;;
17886;SDS011;9069;52.044;7.472;2023-11-18T14:39:35;7.10;;;4.55;;
17886;SDS011;9069;52.044;7.472;2023-11-18T14:42:03;8.00;;;4.05;;
17886;SDS011;9069;52.044;7.472;2023-11-18T14:44:31;8.73;;;4.00;;
17886;SDS011;9069;52.044;7.472;2023-11-18T14:46:58;6.28;;;3.80;;
17886;SDS011;9069;52.044;7.472;2023-11-18T14:49:28;8.75;;;4.28;;
17886;SDS011;9069;52.044;7.472;2023-11-18T14:51:54;6.95;;;3.90;;
17886;SDS011;9069;52.044;7.472;2023-11-18T14:54:22;6.40;;;3.45;;
17886;SDS011;9069;52.044;7.472;2023-11-18T14:56:49;9.27;;;4.20;;
17886;SDS011;9069;52.044;7.472;2023-11-18T14:59:16;7.05;;;3.75;;
17886;SDS011;9069;52.044;7.472;2023-11-18T15:01:47;10.75;;;3.85;;
17886;SDS011;9069;52.044;7.472;2023-11-18T15:04:15;6.32;;;3.45;;
17886;SDS011;9069;52.044;7.472;2023-11-18T15:06:42;9.32;;;4.25;;
17886;SDS011;9069;52.044;7.472;2023-11-18T15:09:09;7.40;;;3.47;;
17886;SDS011;9069;52.044;7.472;2023-11-18T15:11:40;8.23;;;3.90;;
17886;SDS011;9069;52.044;7.472;2023-11-18T15:14:06;7.65;;;4.30;;
17886;SDS011;9069;52.044;7.472;2023-11-18T15:16:34;6.45;;;3.55;;
17886;SDS011;9069;52.044;7.472;2023-11-18T15:19:01;9.55;;;4.00;;
17886;SDS011;9069;52.044;7.472;2023-11-18T15:21:28;6.32;;;3.45;;
17886;SDS011;9069;52.044;7.472;2023-11-18T15:23:58;8.48;;;3.63;;
17886;SDS011;9069;52.044;7.472;2023-11-18T15:26:29;5.95;;;3.45;;
17886;SDS011;9069;52.044;7.472;2023-11-18T15:29:03;5.72;;;3.28;;